createdAt,value
2023-05-22T00:00:00.919Z,37.40
2023-05-22T00:01:00.864Z,34.94
2023-05-22T00:02:00.871Z,37.34
2023-05-22T00:03:00.953Z,33.57
2023-05-22T00:04:00.943Z,36.76
2023-05-22T00:05:00.995Z,37.13
2023-05-22T00:06:00.962Z,35.85
2023-05-22T00:07:01.076Z,35.62
2023-05-22T00:08:01.068Z,32.67
2023-05-22T00:09:01.074Z,34.32
2023-05-22T00:10:01.143Z,34.70
2023-05-22T00:11:01.138Z,36.39
2023-05-22T00:12:01.204Z,36.39
2023-05-22T00:13:01.205Z,33.13
2023-05-22T00:14:01.207Z,33.41
2023-05-22T00:15:01.266Z,34.60
2023-05-22T00:16:01.332Z,33.86
2023-05-22T00:17:01.425Z,35.20
2023-05-22T00:18:01.477Z,31.82
2023-05-22T00:19:01.398Z,32.98
2023-05-22T00:20:01.469Z,31.84
2023-05-22T00:21:01.519Z,32.38
2023-05-22T00:22:01.525Z,35.39
2023-05-22T00:23:01.526Z,33.96
2023-05-22T00:24:01.595Z,34.10
2023-05-22T00:25:01.602Z,30.76
2023-05-22T00:26:01.644Z,34.67
2023-05-22T00:27:01.714Z,33.79
2023-05-22T00:28:01.718Z,32.87
2023-05-22T00:29:01.734Z,31.33
2023-05-22T00:30:01.830Z,34.52
2023-05-22T00:31:01.856Z,33.93
2023-05-22T00:32:01.904Z,32.33
2023-05-22T00:33:01.955Z,31.59
2023-05-22T00:34:02.058Z,34.56
2023-05-22T00:35:02.035Z,31.91
2023-05-22T00:36:02.084Z,30.38
2023-05-22T00:37:02.138Z,32.50
2023-05-22T00:38:02.144Z,30.69
2023-05-22T00:39:02.211Z,30.75
2023-05-22T00:40:02.234Z,33.24
2023-05-22T00:41:02.281Z,31.28
2023-05-22T00:42:02.324Z,34.56
2023-05-22T00:43:02.356Z,32.22
2023-05-22T00:44:02.388Z,31.07
2023-05-22T00:45:02.479Z,32.37
2023-05-22T00:46:02.540Z,31.66
2023-05-22T00:47:02.543Z,33.06
2023-05-22T00:48:02.637Z,33.30
2023-05-22T00:49:02.589Z,32.14
2023-05-22T00:50:02.705Z,30.42
2023-05-22T00:51:02.701Z,30.81
2023-05-22T00:52:02.843Z,31.90
2023-05-22T00:53:02.759Z,31.58
2023-05-22T00:54:02.839Z,31.18
2023-05-22T00:55:02.872Z,30.32
2023-05-22T00:56:02.880Z,29.67
2023-05-22T00:57:02.939Z,29.98
2023-05-22T00:58:02.996Z,34.11
2023-05-22T00:59:03.080Z,30.96
2023-05-22T01:00:03.092Z,31.22
2023-05-22T01:01:03.118Z,30.54
2023-05-22T01:02:03.226Z,30.69
2023-05-22T01:03:03.341Z,30.21
2023-05-22T01:04:03.402Z,30.53
2023-05-22T01:05:03.355Z,29.52
2023-05-22T01:06:03.454Z,31.27
2023-05-22T01:07:03.576Z,30.64
2023-05-22T01:08:03.566Z,29.51
2023-05-22T01:09:03.648Z,29.20
2023-05-22T01:10:03.664Z,31.22
2023-05-22T01:11:03.695Z,30.77
2023-05-22T01:12:04.379Z,29.61
2023-05-22T01:13:03.780Z,28.77
2023-05-22T01:14:03.880Z,30.36
2023-05-22T01:15:03.894Z,28.87
2023-05-22T01:16:03.972Z,28.33
2023-05-22T01:17:03.941Z,26.65
2023-05-22T01:18:04.063Z,28.77
2023-05-22T01:19:04.114Z,28.05
2023-05-22T01:20:04.089Z,28.09
2023-05-22T01:21:04.180Z,30.35
2023-05-22T01:22:04.190Z,28.48
2023-05-22T01:23:04.250Z,28.39
2023-05-22T01:24:04.278Z,28.14
2023-05-22T01:25:04.324Z,26.87
2023-05-22T01:26:04.375Z,27.41
2023-05-22T01:27:04.419Z,26.74
2023-05-22T01:28:04.485Z,28.60
2023-05-22T01:29:04.492Z,27.08
2023-05-22T01:30:04.545Z,31.21
2023-05-22T01:31:04.614Z,28.42
2023-05-22T01:32:04.661Z,26.55
2023-05-22T01:33:04.769Z,29.86
2023-05-22T01:34:04.815Z,30.58
2023-05-22T01:35:04.807Z,26.85
2023-05-22T01:36:04.871Z,26.37
2023-05-22T01:37:04.876Z,29.37
2023-05-22T01:38:04.909Z,27.28
2023-05-22T01:39:04.980Z,27.69
2023-05-22T01:40:05.023Z,29.66
2023-05-22T01:41:05.084Z,28.44
2023-05-22T01:42:05.111Z,28.03
2023-05-22T01:43:05.151Z,30.75
2023-05-22T01:44:05.216Z,29.21
2023-05-22T01:45:05.241Z,28.92
2023-05-22T01:46:05.301Z,30.63
2023-05-22T01:47:05.378Z,28.06
2023-05-22T01:48:05.431Z,28.90
2023-05-22T01:49:05.504Z,30.20
2023-05-22T01:50:05.681Z,31.37
2023-05-22T01:51:05.817Z,33.36
2023-05-22T01:52:05.966Z,31.89
2023-05-22T01:53:06.089Z,29.41
2023-05-22T01:54:06.289Z,30.51
2023-05-22T01:55:06.493Z,31.26
2023-05-22T01:56:06.569Z,31.33
2023-05-22T01:57:06.736Z,30.01
2023-05-22T01:58:06.889Z,30.54
2023-05-22T01:59:07.058Z,31.72
2023-05-22T02:00:07.202Z,30.05
2023-05-22T02:01:07.359Z,29.42
2023-05-22T02:02:07.599Z,30.57
2023-05-22T02:03:07.898Z,27.94
2023-05-22T02:04:07.845Z,30.52
2023-05-22T02:05:08.025Z,29.86
2023-05-22T02:06:08.143Z,30.50
2023-05-22T02:07:09.205Z,28.33
2023-05-22T02:08:08.408Z,28.33
2023-05-22T02:09:08.454Z,27.72
2023-05-22T02:10:08.571Z,26.84
2023-05-22T02:11:08.572Z,30.70
2023-05-22T02:12:08.584Z,30.48
2023-05-22T02:13:08.633Z,25.48
2023-05-22T02:14:08.699Z,29.15
2023-05-22T02:15:08.764Z,27.86
2023-05-22T02:16:08.887Z,27.68
2023-05-22T02:17:08.884Z,28.04
2023-05-22T02:18:09.021Z,30.67
2023-05-22T02:19:09.026Z,28.90
2023-05-22T02:20:08.992Z,29.32
2023-05-22T02:21:09.102Z,26.56
2023-05-22T02:22:09.173Z,30.14
2023-05-22T02:23:09.178Z,27.78
2023-05-22T02:24:09.247Z,30.83
2023-05-22T02:25:09.297Z,30.49
2023-05-22T02:26:09.329Z,31.26
2023-05-22T02:27:09.383Z,28.83
2023-05-22T02:28:09.452Z,26.95
2023-05-22T02:29:09.658Z,28.88
2023-05-22T02:30:09.851Z,30.97
2023-05-22T02:31:10.031Z,30.10
2023-05-22T02:32:10.170Z,30.78
2023-05-22T02:33:10.328Z,29.52
2023-05-22T02:34:10.512Z,27.37
2023-05-22T02:35:10.704Z,30.02
2023-05-22T02:36:10.835Z,30.47
2023-05-22T02:37:10.901Z,28.71
2023-05-22T02:38:11.128Z,30.37
2023-05-22T02:39:11.277Z,27.64
2023-05-22T02:40:11.474Z,28.43
2023-05-22T02:41:11.596Z,28.74
2023-05-22T02:42:11.811Z,30.07
2023-05-22T02:43:11.968Z,28.04
2023-05-22T02:44:12.129Z,27.36
2023-05-22T02:45:12.268Z,28.33
2023-05-22T02:46:12.458Z,29.27
2023-05-22T02:47:12.622Z,29.68
2023-05-22T02:48:12.852Z,26.21
2023-05-22T02:49:12.983Z,32.67
2023-05-22T02:50:13.144Z,28.76
2023-05-22T02:51:13.307Z,30.28
2023-05-22T02:52:13.452Z,30.34
2023-05-22T02:53:13.515Z,29.25
2023-05-22T02:54:13.724Z,32.02
2023-05-22T02:55:13.845Z,30.06
2023-05-22T02:56:14.001Z,28.31
2023-05-22T02:57:14.128Z,30.00
2023-05-22T02:58:14.332Z,29.45
2023-05-22T02:59:14.371Z,31.26
2023-05-22T03:00:14.433Z,27.74
2023-05-22T03:01:14.531Z,30.15
2023-05-22T03:02:14.548Z,26.90
2023-05-22T03:03:14.743Z,30.74
2023-05-22T03:04:14.707Z,29.35
2023-05-22T03:05:14.828Z,29.34
2023-05-22T03:06:14.861Z,28.61
2023-05-22T03:07:14.805Z,30.12
2023-05-22T03:08:14.891Z,31.20
2023-05-22T03:09:14.958Z,29.29
2023-05-22T03:10:14.997Z,26.51
2023-05-22T03:11:15.073Z,29.96
2023-05-22T03:12:15.117Z,27.90
2023-05-22T03:13:15.157Z,27.59
2023-05-22T03:14:15.255Z,29.24
2023-05-22T03:15:15.305Z,32.56
2023-05-22T03:16:15.418Z,30.35
2023-05-22T03:17:15.480Z,30.78
2023-05-22T03:18:15.491Z,30.32
2023-05-22T03:19:15.611Z,28.19
2023-05-22T03:20:15.647Z,30.11
2023-05-22T03:21:15.717Z,30.14
2023-05-22T03:22:15.774Z,30.38
2023-05-22T03:23:15.805Z,30.67
2023-05-22T03:24:15.940Z,29.51
2023-05-22T03:25:16.016Z,29.26
2023-05-22T03:26:16.055Z,28.94
2023-05-22T03:27:16.115Z,29.47
2023-05-22T03:28:16.158Z,27.71
2023-05-22T03:29:16.234Z,29.59
2023-05-22T03:30:16.264Z,29.02
2023-05-22T03:31:16.342Z,31.85
2023-05-22T03:32:16.387Z,29.74
2023-05-22T03:33:16.514Z,27.49
2023-05-22T03:34:16.554Z,30.86
2023-05-22T03:35:16.586Z,28.71
2023-05-22T03:36:16.651Z,27.35
2023-05-22T03:37:16.730Z,28.72
2023-05-22T03:38:16.769Z,29.81
2023-05-22T03:39:16.980Z,34.10
2023-05-22T03:40:17.117Z,28.58
2023-05-22T03:41:17.198Z,33.55
2023-05-22T03:42:17.368Z,30.13
2023-05-22T03:43:17.440Z,28.10
2023-05-22T03:44:17.570Z,28.37
2023-05-22T03:45:17.698Z,28.41
2023-05-22T03:46:17.822Z,25.44
2023-05-22T03:47:17.914Z,28.15
2023-05-22T03:48:18.058Z,31.14
2023-05-22T03:49:18.197Z,27.46
2023-05-22T03:50:18.263Z,29.25
2023-05-22T03:51:20.114Z,28.59
2023-05-22T03:52:18.445Z,27.82
2023-05-22T03:53:18.514Z,30.03
2023-05-22T03:54:18.540Z,30.48
2023-05-22T03:55:18.626Z,25.10
2023-05-22T03:56:18.743Z,27.64
2023-05-22T03:57:18.777Z,26.70
2023-05-22T03:58:18.798Z,32.04
2023-05-22T03:59:18.936Z,29.76
2023-05-22T04:00:18.946Z,28.39
2023-05-22T04:01:18.977Z,29.46
2023-05-22T04:02:19.114Z,26.80
2023-05-22T04:03:19.262Z,27.11
2023-05-22T04:04:19.167Z,28.47
2023-05-22T04:05:19.283Z,32.41
2023-05-22T04:06:19.305Z,26.36
2023-05-22T04:07:19.371Z,32.19
2023-05-22T04:08:19.410Z,32.97
2023-05-22T04:09:19.498Z,30.22
2023-05-22T04:10:19.568Z,28.49
2023-05-22T04:11:19.642Z,28.33
2023-05-22T04:12:19.697Z,31.90
2023-05-22T04:13:19.757Z,28.09
2023-05-22T04:14:19.802Z,29.93
2023-05-22T04:15:19.863Z,29.55
2023-05-22T04:16:19.941Z,26.82
2023-05-22T04:17:19.983Z,29.38
2023-05-22T04:18:20.090Z,27.22
2023-05-22T04:19:20.157Z,27.28
2023-05-22T04:20:20.164Z,27.92
2023-05-22T04:21:20.228Z,29.85
2023-05-22T04:22:20.279Z,25.80
2023-05-22T04:23:20.278Z,26.31
2023-05-22T04:24:20.396Z,28.63
2023-05-22T04:25:20.455Z,27.15
2023-05-22T04:26:20.485Z,27.69
2023-05-22T04:27:20.506Z,28.08
2023-05-22T04:28:20.611Z,25.44
2023-05-22T04:29:20.664Z,25.79
2023-05-22T04:30:20.690Z,25.09
2023-05-22T04:31:20.762Z,28.24
2023-05-22T04:32:20.809Z,28.62
2023-05-22T04:33:20.809Z,30.11
2023-05-22T04:34:20.846Z,30.01
2023-05-22T04:35:20.837Z,29.58
2023-05-22T04:36:20.871Z,26.62
2023-05-22T04:37:20.934Z,25.43
2023-05-22T04:38:20.956Z,27.89
2023-05-22T04:39:21.049Z,25.00
2023-05-22T04:40:20.967Z,25.00
2023-05-22T04:41:22.417Z,26.31
2023-05-22T04:42:21.073Z,25.00
2023-05-22T04:43:21.141Z,28.16
2023-05-22T04:44:21.168Z,28.95
2023-05-22T04:45:21.250Z,31.83
2023-05-22T04:46:21.562Z,31.03
2023-05-22T04:47:21.268Z,31.77
2023-05-22T04:48:21.335Z,28.66
2023-05-22T04:49:21.374Z,32.04
2023-05-22T04:50:21.389Z,28.87
2023-05-22T04:51:21.404Z,29.13
2023-05-22T04:52:21.470Z,29.44
2023-05-22T04:53:21.467Z,27.53
2023-05-22T04:54:21.504Z,25.00
2023-05-22T04:55:21.525Z,26.51
2023-05-22T04:56:34.678Z,35.07
2023-05-22T04:57:22.584Z,35.21
2023-05-22T04:58:21.548Z,35.48
2023-05-22T04:59:21.551Z,37.48
2023-05-22T05:00:21.591Z,41.16
2023-05-22T05:01:21.682Z,47.01
2023-05-22T05:02:21.546Z,45.68
2023-05-22T05:03:21.585Z,46.29
2023-05-22T05:04:21.549Z,46.72
2023-05-22T05:05:21.485Z,41.33
2023-05-22T05:06:21.552Z,54.39
2023-05-22T05:07:21.524Z,55.44
2023-05-22T05:08:21.509Z,48.18
2023-05-22T05:09:21.485Z,47.57
2023-05-22T05:10:21.524Z,48.76
2023-05-22T05:11:21.680Z,47.80
2023-05-22T05:12:21.473Z,44.25
2023-05-22T05:13:21.492Z,45.67
2023-05-22T05:14:21.559Z,42.30
2023-05-22T05:15:21.608Z,41.15
2023-05-22T05:16:21.693Z,41.91
2023-05-22T05:17:21.671Z,39.19
2023-05-22T05:18:21.817Z,38.20
2023-05-22T05:19:21.976Z,36.80
2023-05-22T05:20:21.921Z,32.90
2023-05-22T05:21:21.974Z,31.34
2023-05-22T05:22:22.024Z,33.37
2023-05-22T05:23:22.069Z,33.07
2023-05-22T05:24:22.133Z,33.20
2023-05-22T05:25:22.194Z,30.34
2023-05-22T05:26:22.212Z,27.52
2023-05-22T05:27:22.254Z,31.66
2023-05-22T05:28:22.292Z,28.57
2023-05-22T05:29:22.393Z,28.55
2023-05-22T05:30:22.432Z,26.63
2023-05-22T05:31:22.561Z,28.23
2023-05-22T05:32:22.799Z,26.26
2023-05-22T05:33:22.615Z,24.65
2023-05-22T05:34:22.656Z,25.00
2023-05-22T05:35:22.728Z,22.64
2023-05-22T05:36:22.704Z,25.56
2023-05-22T05:37:22.695Z,23.65
2023-05-22T05:38:22.716Z,25.00
2023-05-22T05:39:22.745Z,25.00
2023-05-22T05:40:22.809Z,26.97
2023-05-22T05:41:22.780Z,25.00
2023-05-22T05:42:22.834Z,25.34
2023-05-22T05:43:22.908Z,25.00
2023-05-22T05:44:22.909Z,25.40
2023-05-22T05:45:23.020Z,26.35
2023-05-22T05:46:23.148Z,31.22
2023-05-22T05:47:23.171Z,26.04
2023-05-22T05:48:23.531Z,28.69
2023-05-22T05:49:23.219Z,30.60
2023-05-22T05:50:23.285Z,34.30
2023-05-22T05:51:24.235Z,32.93
2023-05-22T05:52:23.455Z,30.88
2023-05-22T05:53:23.463Z,27.40
2023-05-22T05:54:23.500Z,30.03
2023-05-22T05:55:23.539Z,28.97
2023-05-22T05:56:23.580Z,30.40
2023-05-22T05:57:23.606Z,33.63
2023-05-22T05:58:23.629Z,34.03
2023-05-22T05:59:23.632Z,37.08
2023-05-22T06:00:23.643Z,35.10
2023-05-22T06:01:23.744Z,41.03
2023-05-22T06:02:23.873Z,44.43
2023-05-22T06:03:23.822Z,45.65
2023-05-22T06:04:23.774Z,51.32
2023-05-22T06:05:23.836Z,56.33
2023-05-22T06:06:23.911Z,56.39
2023-05-22T06:07:24.004Z,60.24
2023-05-22T06:08:24.023Z,64.58
2023-05-22T06:09:24.137Z,66.26
2023-05-22T06:10:24.153Z,74.26
2023-05-22T06:11:24.247Z,83.55
2023-05-22T06:12:24.228Z,91.43
2023-05-22T06:13:24.434Z,91.75
2023-05-22T06:14:24.369Z,93.75
2023-05-22T06:15:24.394Z,97.78
2023-05-22T06:16:24.539Z,100.52
2023-05-22T06:17:24.617Z,104.88
2023-05-22T06:18:24.610Z,112.82
2023-05-22T06:19:24.830Z,111.21
2023-05-22T06:20:24.740Z,117.55
2023-05-22T06:21:24.800Z,114.43
2023-05-22T06:22:24.912Z,117.91
2023-05-22T06:23:24.959Z,117.69
2023-05-22T06:24:25.033Z,120.06
2023-05-22T06:25:25.030Z,102.78
2023-05-22T06:26:25.088Z,92.69
2023-05-22T06:27:25.161Z,78.99
2023-05-22T06:28:25.277Z,77.13
2023-05-22T06:29:25.297Z,72.33
2023-05-22T06:30:38.816Z,66.29
2023-05-22T06:31:26.351Z,63.22
2023-05-22T06:32:25.392Z,62.97
2023-05-22T06:33:25.376Z,58.22
2023-05-22T06:34:25.557Z,55.06
2023-05-22T06:35:25.318Z,58.08
2023-05-22T06:36:25.360Z,51.53
2023-05-22T06:37:25.287Z,51.20
2023-05-22T06:38:25.260Z,50.08
2023-05-22T06:39:27.012Z,42.92
2023-05-22T06:40:25.275Z,42.50
2023-05-22T06:41:25.286Z,41.36
2023-05-22T06:42:25.288Z,31.41
2023-05-22T06:43:25.241Z,25.92
2023-05-22T06:44:25.269Z,27.45
2023-05-22T06:45:26.026Z,25.97
2023-05-22T06:46:26.250Z,25.70
2023-05-22T06:47:25.345Z,29.92
2023-05-22T06:48:25.333Z,28.88
2023-05-22T06:49:25.345Z,25.06
2023-05-22T06:50:25.348Z,27.39
2023-05-22T06:51:25.313Z,28.48
2023-05-22T06:52:26.380Z,25.00
2023-05-22T06:53:25.363Z,26.33
2023-05-22T06:54:25.458Z,25.56
2023-05-22T06:55:25.370Z,30.32
2023-05-22T06:56:25.385Z,35.16
2023-05-22T06:57:25.460Z,33.01
2023-05-22T06:58:25.475Z,34.98
2023-05-22T06:59:25.478Z,29.90
2023-05-22T07:00:25.419Z,35.12
2023-05-22T07:01:26.074Z,33.43
2023-05-22T07:02:25.578Z,33.58
2023-05-22T07:03:25.538Z,35.44
2023-05-22T07:04:25.549Z,42.10
2023-05-22T07:05:25.682Z,45.19
2023-05-22T07:06:25.673Z,49.09
2023-05-22T07:07:25.748Z,49.40
2023-05-22T07:08:26.844Z,52.83
2023-05-22T07:09:26.087Z,51.84
2023-05-22T07:10:26.055Z,61.38
2023-05-22T07:11:26.100Z,60.34
2023-05-22T07:12:26.189Z,66.63
2023-05-22T07:13:26.178Z,76.97
2023-05-22T07:14:26.247Z,80.89
2023-05-22T07:15:26.304Z,86.37
2023-05-22T07:16:26.358Z,80.50
2023-05-22T07:17:26.567Z,72.91
2023-05-22T07:18:26.482Z,78.24
2023-05-22T07:19:26.519Z,73.39
2023-05-22T07:20:26.542Z,74.62
2023-05-22T07:21:26.680Z,78.55
2023-05-22T07:22:26.715Z,65.95
2023-05-22T07:23:26.741Z,63.30
2023-05-22T07:24:26.770Z,63.72
2023-05-22T07:25:26.849Z,59.61
2023-05-22T07:26:27.621Z,53.49
2023-05-22T07:27:26.962Z,52.98
2023-05-22T07:28:27.543Z,55.90
2023-05-22T07:29:27.064Z,52.59
2023-05-22T07:30:27.269Z,46.34
2023-05-22T07:31:27.550Z,47.13
2023-05-22T07:32:27.303Z,51.13
2023-05-22T07:33:27.296Z,51.05
2023-05-22T07:34:27.903Z,46.48
2023-05-22T07:35:27.398Z,52.48
2023-05-22T07:36:27.405Z,43.63
2023-05-22T07:37:27.474Z,49.81
2023-05-22T07:38:27.631Z,48.99
2023-05-22T07:39:27.631Z,39.30
2023-05-22T07:40:27.739Z,52.54
2023-05-22T07:41:27.742Z,44.91
2023-05-22T07:42:27.884Z,57.03
2023-05-22T07:43:27.983Z,50.47
2023-05-22T07:44:27.860Z,52.32
2023-05-22T07:45:27.952Z,65.42
2023-05-22T07:46:28.020Z,73.94
2023-05-22T07:47:28.111Z,85.69
2023-05-22T07:48:28.055Z,79.73
2023-05-22T07:49:28.188Z,87.67
2023-05-22T07:50:28.196Z,81.00
2023-05-22T07:51:28.437Z,86.17
2023-05-22T07:52:28.290Z,90.48
2023-05-22T07:53:28.314Z,90.85
2023-05-22T07:54:28.365Z,89.44
2023-05-22T07:55:28.593Z,86.22
2023-05-22T07:56:28.480Z,96.62
2023-05-22T07:57:28.470Z,81.25
2023-05-22T07:58:28.737Z,103.01
2023-05-22T07:59:28.577Z,107.84
2023-05-22T08:00:28.623Z,96.97
2023-05-22T08:01:28.685Z,89.48
2023-05-22T08:02:28.803Z,101.30
2023-05-22T08:03:28.860Z,98.18
2023-05-22T08:04:28.866Z,108.17
2023-05-22T08:05:28.806Z,102.96
2023-05-22T08:06:28.842Z,102.62
2023-05-22T08:07:28.858Z,102.43
2023-05-22T08:08:30.576Z,108.62
2023-05-22T08:09:28.940Z,110.14
2023-05-22T08:10:41.694Z,101.76
2023-05-22T08:11:29.871Z,102.34
2023-05-22T08:12:29.244Z,103.74
2023-05-22T08:13:28.964Z,106.25
2023-05-22T08:14:28.884Z,112.01
2023-05-22T08:15:28.890Z,114.55
2023-05-22T08:16:28.863Z,103.11
2023-05-22T08:17:28.850Z,102.64
2023-05-22T08:18:28.805Z,107.10
2023-05-22T08:19:29.040Z,102.71
2023-05-22T08:20:28.866Z,109.79
2023-05-22T08:21:28.814Z,112.71
2023-05-22T08:22:28.798Z,109.03
2023-05-22T08:23:28.805Z,101.50
2023-05-22T08:24:29.297Z,99.83
2023-05-22T08:25:28.840Z,86.66
2023-05-22T08:26:30.049Z,71.47
2023-05-22T08:27:29.067Z,42.87
2023-05-22T08:28:29.194Z,27.00
2023-05-22T08:29:29.196Z,24.96
2023-05-22T08:30:29.417Z,25.04
2023-05-22T08:31:29.313Z,25.48
2023-05-22T08:32:31.155Z,25.00
2023-05-22T08:33:29.316Z,25.27
2023-05-22T08:34:29.379Z,25.00
2023-05-22T08:35:29.427Z,32.06
2023-05-22T08:36:29.461Z,30.19
2023-05-22T08:37:29.544Z,25.59
2023-05-22T08:38:29.576Z,47.84
2023-05-22T08:39:29.666Z,29.83
2023-05-22T08:40:29.700Z,28.17
2023-05-22T08:41:29.816Z,33.67
2023-05-22T08:42:29.775Z,39.26
2023-05-22T08:43:29.994Z,43.59
2023-05-22T08:44:29.923Z,59.75
2023-05-22T08:45:30.094Z,61.80
2023-05-22T08:46:30.120Z,69.68
2023-05-22T08:47:30.096Z,80.99
2023-05-22T08:48:30.226Z,84.47
2023-05-22T08:49:30.123Z,86.20
2023-05-22T08:50:30.182Z,92.48
2023-05-22T08:51:30.258Z,94.93
2023-05-22T08:52:30.234Z,99.11
2023-05-22T08:53:30.276Z,111.92
2023-05-22T08:54:30.313Z,119.05
2023-05-22T08:55:30.302Z,124.56
2023-05-22T08:56:33.440Z,129.57
2023-05-22T08:57:30.405Z,130.12
2023-05-22T08:58:30.388Z,131.44
2023-05-22T08:59:30.423Z,135.12
2023-05-22T09:00:31.061Z,140.62
2023-05-22T09:01:30.358Z,150.04
2023-05-22T09:02:30.556Z,155.41
2023-05-22T09:03:32.078Z,105.62
2023-05-22T09:04:30.390Z,68.34
2023-05-22T09:05:30.331Z,49.38
2023-05-22T09:06:30.343Z,41.28
2023-05-22T09:07:30.578Z,28.27
2023-05-22T09:08:30.300Z,16.78
2023-05-22T09:09:30.289Z,25.00
2023-05-22T09:10:30.309Z,36.72
2023-05-22T09:11:30.388Z,53.08
2023-05-22T09:12:30.337Z,53.79
2023-05-22T09:13:32.085Z,66.80
2023-05-22T09:14:30.602Z,75.12
2023-05-22T09:15:30.427Z,93.68
2023-05-22T09:16:30.463Z,97.86
2023-05-22T09:17:30.504Z,109.90
2023-05-22T09:18:30.681Z,115.34
2023-05-22T09:19:30.593Z,122.40
2023-05-22T09:20:30.495Z,135.65
2023-05-22T09:21:30.923Z,134.40
2023-05-22T09:22:30.603Z,145.27
2023-05-22T09:23:30.583Z,152.57
2023-05-22T09:24:30.559Z,159.84
2023-05-22T09:25:30.580Z,168.51
2023-05-22T09:26:30.612Z,175.17
2023-05-22T09:27:30.591Z,176.88
2023-05-22T09:28:30.602Z,185.78
2023-05-22T09:29:30.727Z,185.96
2023-05-22T09:30:30.668Z,185.95
2023-05-22T09:31:30.762Z,194.59
2023-05-22T09:32:30.763Z,203.58
2023-05-22T09:33:30.657Z,197.46
2023-05-22T09:34:31.061Z,209.87
2023-05-22T09:35:30.636Z,212.79
2023-05-22T09:36:30.600Z,199.47
2023-05-22T09:37:30.592Z,200.37
2023-05-22T09:38:30.614Z,155.74
2023-05-22T09:39:30.627Z,125.33
2023-05-22T09:40:31.102Z,96.31
2023-05-22T09:41:30.735Z,80.09
2023-05-22T09:42:30.750Z,58.41
2023-05-22T09:43:30.713Z,23.62
2023-05-22T09:44:30.748Z,19.54
2023-05-22T09:45:30.831Z,25.00
2023-05-22T09:46:30.906Z,29.63
2023-05-22T09:47:31.023Z,25.14
2023-05-22T09:48:30.945Z,40.63
2023-05-22T09:49:30.990Z,38.21
2023-05-22T09:50:31.164Z,46.72
2023-05-22T09:51:31.072Z,65.32
2023-05-22T09:52:31.082Z,67.49
2023-05-22T09:53:31.135Z,67.68
2023-05-22T09:54:31.168Z,99.06
2023-05-22T09:55:31.175Z,121.66
2023-05-22T09:56:39.147Z,136.35
2023-05-22T09:57:32.221Z,136.46
2023-05-22T09:58:31.220Z,138.12
2023-05-22T09:59:31.157Z,143.97
2023-05-22T10:00:31.237Z,153.16
2023-05-22T10:01:31.162Z,182.62
2023-05-22T10:02:31.167Z,187.86
2023-05-22T10:03:31.170Z,185.10
2023-05-22T10:04:31.228Z,196.90
2023-05-22T10:05:31.187Z,195.36
2023-05-22T10:06:31.188Z,203.03
2023-05-22T10:07:31.115Z,205.52
2023-05-22T10:08:31.091Z,202.20
2023-05-22T10:09:31.459Z,206.69
2023-05-22T10:10:31.151Z,210.30
2023-05-22T10:11:31.114Z,223.58
2023-05-22T10:12:31.125Z,227.47
2023-05-22T10:13:31.066Z,221.49
2023-05-22T10:14:31.141Z,237.62
2023-05-22T10:15:31.079Z,230.01
2023-05-22T10:16:31.115Z,230.19
2023-05-22T10:17:31.102Z,233.67
2023-05-22T10:18:31.077Z,233.89
2023-05-22T10:19:31.097Z,232.10
2023-05-22T10:20:31.064Z,236.88
2023-05-22T10:21:31.013Z,247.47
2023-05-22T10:22:31.102Z,208.46
2023-05-22T10:23:31.099Z,216.20
2023-05-22T10:24:31.030Z,225.06
2023-05-22T10:25:31.042Z,223.02
2023-05-22T10:26:31.030Z,232.39
2023-05-22T10:27:31.008Z,236.27
2023-05-22T10:28:31.034Z,238.54
2023-05-22T10:29:31.158Z,217.26
2023-05-22T10:30:31.030Z,168.43
2023-05-22T10:31:31.059Z,144.16
2023-05-22T10:32:31.057Z,135.59
2023-05-22T10:33:31.133Z,98.19
2023-05-22T10:34:31.030Z,91.47
2023-05-22T10:35:31.000Z,76.25
2023-05-22T10:36:31.011Z,78.32
2023-05-22T10:37:31.065Z,73.27
2023-05-22T10:38:31.106Z,97.20
2023-05-22T10:39:31.013Z,116.40
2023-05-22T10:40:31.043Z,130.90
2023-05-22T10:41:31.044Z,126.67
2023-05-22T10:42:31.027Z,147.00
2023-05-22T10:43:31.084Z,157.38
2023-05-22T10:44:31.131Z,177.07
2023-05-22T10:45:31.190Z,187.27
2023-05-22T10:46:31.242Z,193.73
2023-05-22T10:47:31.098Z,197.03
2023-05-22T10:48:31.154Z,203.06
2023-05-22T10:49:31.175Z,207.02
2023-05-22T10:50:31.170Z,214.72
2023-05-22T10:51:31.211Z,222.61
2023-05-22T10:52:31.228Z,223.21
2023-05-22T10:53:31.211Z,224.70
2023-05-22T10:54:31.272Z,231.71
2023-05-22T10:55:31.218Z,244.89
2023-05-22T10:56:31.290Z,246.70
2023-05-22T10:57:31.174Z,243.88
2023-05-22T10:58:31.235Z,240.95
2023-05-22T10:59:31.237Z,241.49
2023-05-22T11:00:31.281Z,241.31
2023-05-22T11:01:31.264Z,232.02
2023-05-22T11:02:31.482Z,232.08
2023-05-22T11:03:31.344Z,231.15
2023-05-22T11:04:31.632Z,235.63
2023-05-22T11:05:31.278Z,220.51
2023-05-22T11:06:31.289Z,238.40
2023-05-22T11:07:31.278Z,242.90
2023-05-22T11:08:31.406Z,248.55
2023-05-22T11:09:31.279Z,228.28
2023-05-22T11:10:31.374Z,219.49
2023-05-22T11:11:31.296Z,209.81
2023-05-22T11:12:31.358Z,201.45
2023-05-22T11:13:31.265Z,216.35
2023-05-22T11:14:31.275Z,191.39
2023-05-22T11:15:31.284Z,157.58
2023-05-22T11:16:31.332Z,195.87
2023-05-22T11:17:31.325Z,193.46
2023-05-22T11:18:31.266Z,212.48
2023-05-22T11:19:31.312Z,210.59
2023-05-22T11:20:31.283Z,213.90
2023-05-22T11:21:31.310Z,215.79
2023-05-22T11:22:31.345Z,222.20
2023-05-22T11:23:31.353Z,228.74
2023-05-22T11:24:31.417Z,230.89
2023-05-22T11:25:31.410Z,223.74
2023-05-22T11:26:31.467Z,214.08
2023-05-22T11:27:31.555Z,220.85
2023-05-22T11:28:31.561Z,210.26
2023-05-22T11:29:31.568Z,214.43
2023-05-22T11:30:31.676Z,238.43
2023-05-22T11:31:31.763Z,238.64
2023-05-22T11:32:31.862Z,231.74
2023-05-22T11:33:31.775Z,242.34
2023-05-22T11:34:31.845Z,237.64
2023-05-22T11:35:31.938Z,243.10
2023-05-22T11:36:31.910Z,241.39
2023-05-22T11:37:32.007Z,233.60
2023-05-22T11:38:31.946Z,249.95
2023-05-22T11:39:31.963Z,237.79
2023-05-22T11:40:31.991Z,238.94
2023-05-22T11:41:33.696Z,237.76
2023-05-22T11:42:32.046Z,237.49
2023-05-22T11:43:31.983Z,241.45
2023-05-22T11:44:31.994Z,240.42
2023-05-22T11:45:32.011Z,237.79
2023-05-22T11:46:32.090Z,242.85
2023-05-22T11:47:32.018Z,245.39
2023-05-22T11:48:32.031Z,243.83
2023-05-22T11:49:31.988Z,240.46
2023-05-22T11:50:41.621Z,242.11
2023-05-22T11:51:32.965Z,242.16
2023-05-22T11:52:31.946Z,242.55
2023-05-22T11:53:31.952Z,242.64
2023-05-22T11:54:31.917Z,243.43
2023-05-22T11:55:31.920Z,242.15
2023-05-22T11:56:31.929Z,249.41
2023-05-22T11:57:31.954Z,246.71
2023-05-22T11:58:31.994Z,241.29
2023-05-22T11:59:31.956Z,242.55
2023-05-22T12:00:32.111Z,239.28
2023-05-22T12:01:31.900Z,236.07
2023-05-22T12:02:31.997Z,243.08
2023-05-22T12:03:31.951Z,240.15
2023-05-22T12:04:31.899Z,238.17
2023-05-22T12:05:31.886Z,242.50
2023-05-22T12:06:31.868Z,245.71
2023-05-22T12:07:31.906Z,239.98
2023-05-22T12:08:31.848Z,234.90
2023-05-22T12:09:31.847Z,235.45
2023-05-22T12:10:31.872Z,240.03
2023-05-22T12:11:31.852Z,232.25
2023-05-22T12:12:31.840Z,239.80
2023-05-22T12:13:31.853Z,235.40
2023-05-22T12:14:31.930Z,244.12
2023-05-22T12:15:31.851Z,235.91
2023-05-22T12:16:31.830Z,237.08
2023-05-22T12:17:31.823Z,239.06
2023-05-22T12:18:31.797Z,230.46
2023-05-22T12:19:31.841Z,235.41
2023-05-22T12:20:31.790Z,237.43
2023-05-22T12:21:31.852Z,224.61
2023-05-22T12:22:31.800Z,230.96
2023-05-22T12:23:31.741Z,240.39
2023-05-22T12:24:31.758Z,242.89
2023-05-22T12:25:31.833Z,238.12
2023-05-22T12:26:31.765Z,231.75
2023-05-22T12:27:33.178Z,234.36
2023-05-22T12:28:31.746Z,235.35
2023-05-22T12:29:31.761Z,227.01
2023-05-22T12:30:31.878Z,222.34
2023-05-22T12:31:31.806Z,237.97
2023-05-22T12:32:31.860Z,232.91
2023-05-22T12:33:31.776Z,235.81
2023-05-22T12:34:31.775Z,239.77
2023-05-22T12:35:31.806Z,234.65
2023-05-22T12:36:31.809Z,234.10
2023-05-22T12:37:33.490Z,237.94
2023-05-22T12:38:33.467Z,239.63
2023-05-22T12:39:31.765Z,238.99
2023-05-22T12:40:31.742Z,229.43
2023-05-22T12:41:31.842Z,242.47
2023-05-22T12:42:31.742Z,247.54
2023-05-22T12:43:31.746Z,237.36
2023-05-22T12:44:31.768Z,239.56
2023-05-22T12:45:31.762Z,244.97